createdAt,value
2018-09-17T00:00:34.461Z,96.10
2018-09-17T00:03:03.043Z,95.93
2018-09-17T00:05:31.641Z,95.90
2018-09-17T00:08:00.205Z,95.70
2018-09-17T00:10:28.886Z,95.58
2018-09-17T00:12:57.429Z,95.23
2018-09-17T00:15:26.033Z,94.78
2018-09-17T00:17:54.590Z,94.52
2018-09-17T00:20:23.185Z,94.82
2018-09-17T00:22:51.761Z,95.03
2018-09-17T00:25:20.342Z,94.71
2018-09-17T00:27:48.916Z,94.73
2018-09-17T00:30:17.535Z,94.75
2018-09-17T00:32:46.125Z,94.58
2018-09-17T00:35:14.716Z,94.44
2018-09-17T00:37:43.310Z,94.39
2018-09-17T00:40:11.924Z,94.61
2018-09-17T00:42:40.487Z,94.94
2018-09-17T00:45:09.092Z,95.13
2018-09-17T00:47:37.662Z,95.33
2018-09-17T00:50:06.309Z,95.74
2018-09-17T00:52:34.880Z,96.09
2018-09-17T00:55:03.461Z,96.23
2018-09-17T00:57:32.038Z,96.38
2018-09-17T01:00:00.633Z,96.27
2018-09-17T01:02:29.212Z,96.01
2018-09-17T01:04:57.801Z,96.04
2018-09-17T01:07:26.370Z,96.07
2018-09-17T01:09:54.949Z,96.06
2018-09-17T01:12:23.526Z,95.97
2018-09-17T01:14:52.117Z,96.04
2018-09-17T01:17:20.688Z,96.03
2018-09-17T01:19:49.274Z,96.04
2018-09-17T01:22:17.867Z,96.15
2018-09-17T01:24:46.471Z,96.06
2018-09-17T01:27:15.042Z,96.32
2018-09-17T01:29:43.664Z,96.68
2018-09-17T01:32:12.245Z,96.82
2018-09-17T01:34:40.852Z,97.27
2018-09-17T01:37:09.433Z,97.46
2018-09-17T01:39:38.026Z,97.79
2018-09-17T01:42:06.655Z,97.88
2018-09-17T01:44:35.286Z,98.13
2018-09-17T01:47:03.869Z,98.04
2018-09-17T01:49:32.454Z,98.60
2018-09-17T01:52:01.018Z,99.21
2018-09-17T01:54:29.580Z,99.17
2018-09-17T01:56:58.157Z,98.90
2018-09-17T01:59:26.781Z,98.15
2018-09-17T02:01:55.392Z,97.41
2018-09-17T02:04:23.987Z,96.83
2018-09-17T02:06:52.590Z,96.80
2018-09-17T02:09:21.158Z,96.92
2018-09-17T02:11:49.760Z,96.88
2018-09-17T02:14:18.337Z,97.33
2018-09-17T02:16:46.945Z,97.58
2018-09-17T02:19:15.625Z,97.43
2018-09-17T02:21:44.229Z,97.85
2018-09-17T02:24:12.842Z,98.59
2018-09-17T02:26:41.456Z,98.37
2018-09-17T02:29:10.013Z,97.91
2018-09-17T02:31:38.610Z,97.19
2018-09-17T02:34:07.168Z,96.98
2018-09-17T02:36:35.751Z,96.51
2018-09-17T02:39:05.416Z,96.29
2018-09-17T02:41:33.999Z,96.90
2018-09-17T02:44:02.556Z,97.27
2018-09-17T02:46:31.154Z,97.52
2018-09-17T02:48:59.709Z,97.65
2018-09-17T02:51:28.290Z,98.16
2018-09-17T02:53:56.910Z,98.67
2018-09-17T02:56:25.531Z,99.22
2018-09-17T02:58:54.107Z,98.96
2018-09-17T03:01:22.704Z,98.76
2018-09-17T03:03:51.772Z,99.26
2018-09-17T03:06:20.350Z,100.00
2018-09-17T03:08:48.909Z,100.00
2018-09-17T03:11:17.502Z,100.00
2018-09-17T03:13:46.145Z,100.00
2018-09-17T03:16:14.727Z,100.00
2018-09-17T03:18:53.305Z,100.00
2018-09-17T03:21:22.133Z,100.00
2018-09-17T03:23:50.732Z,100.00
2018-09-17T03:26:19.895Z,100.00
2018-09-17T03:28:48.507Z,100.00
2018-09-17T03:31:17.184Z,99.04
2018-09-17T03:33:45.764Z,98.04
2018-09-17T03:36:14.391Z,98.31
2018-09-17T03:38:46.035Z,97.14
2018-09-17T03:41:15.250Z,96.85
2018-09-17T03:43:45.376Z,97.17
2018-09-17T03:46:14.038Z,98.07
2018-09-17T03:48:42.783Z,98.29
2018-09-17T03:51:12.019Z,98.59
2018-09-17T03:53:41.010Z,98.23
2018-09-17T03:56:09.617Z,98.51
2018-09-17T03:58:38.182Z,99.36
2018-09-17T04:01:06.916Z,99.56
2018-09-17T04:03:35.491Z,98.28
2018-09-17T04:06:04.053Z,98.38
2018-09-17T04:08:33.470Z,98.32
2018-09-17T04:11:02.030Z,97.90
2018-09-17T04:13:30.618Z,98.39
2018-09-17T04:15:59.189Z,98.74
2018-09-17T04:18:27.785Z,98.54
2018-09-17T04:20:56.366Z,98.67
2018-09-17T04:23:30.005Z,98.15
2018-09-17T04:25:58.574Z,98.41
2018-09-17T04:28:27.172Z,98.50
2018-09-17T04:30:55.746Z,98.41
2018-09-17T04:33:24.658Z,98.46
2018-09-17T04:35:53.222Z,98.87
2018-09-17T04:38:21.808Z,99.04
2018-09-17T04:40:50.393Z,99.06
2018-09-17T04:43:18.966Z,98.84
2018-09-17T04:45:47.548Z,98.52
2018-09-17T04:48:16.432Z,97.66
2018-09-17T04:50:44.984Z,97.67
2018-09-17T04:53:13.553Z,97.76
2018-09-17T04:55:42.093Z,97.29
2018-09-17T04:58:10.666Z,96.69
2018-09-17T05:00:39.222Z,96.80
2018-09-17T05:03:07.802Z,97.29
2018-09-17T05:05:36.359Z,97.73
2018-09-17T05:08:04.943Z,97.84
2018-09-17T05:10:33.493Z,97.81
2018-09-17T05:13:02.128Z,97.70
2018-09-17T05:15:30.669Z,97.66
2018-09-17T05:17:59.268Z,97.72
2018-09-17T05:20:27.845Z,97.50
2018-09-17T05:22:56.442Z,97.77
2018-09-17T05:25:25.040Z,98.51
2018-09-17T05:27:53.629Z,98.75
2018-09-17T05:30:22.225Z,98.71
2018-09-17T05:32:50.901Z,98.81
2018-09-17T05:35:19.596Z,97.54
2018-09-17T05:37:48.306Z,97.03
2018-09-17T05:40:16.875Z,96.09
2018-09-17T05:42:45.452Z,95.71
2018-09-17T05:45:14.015Z,95.40
2018-09-17T05:47:42.613Z,95.55
2018-09-17T05:50:11.194Z,95.31
2018-09-17T05:52:39.785Z,95.11
2018-09-17T05:55:08.364Z,93.90
2018-09-17T05:57:37.003Z,92.00
2018-09-17T06:00:07.032Z,91.42
2018-09-17T06:02:35.663Z,91.66
2018-09-17T06:05:04.403Z,92.55
2018-09-17T06:07:32.962Z,93.12
2018-09-17T06:10:01.610Z,93.47
2018-09-17T06:12:30.179Z,93.14
2018-09-17T06:14:58.766Z,92.46
2018-09-17T06:17:27.421Z,92.45
2018-09-17T06:19:55.972Z,92.82
2018-09-17T06:22:24.625Z,93.65
2018-09-17T06:24:53.213Z,93.47
2018-09-17T06:27:21.868Z,93.63
2018-09-17T06:29:50.491Z,93.48
2018-09-17T06:32:19.075Z,93.26
2018-09-17T06:34:47.702Z,92.63
2018-09-17T06:37:16.286Z,91.90
2018-09-17T06:39:44.882Z,91.81
2018-09-17T06:42:13.510Z,91.28
2018-09-17T06:44:42.630Z,90.16
2018-09-17T06:47:11.202Z,89.53
2018-09-17T06:49:39.809Z,89.28
2018-09-17T06:52:08.420Z,88.50
2018-09-17T06:54:37.013Z,86.30
2018-09-17T06:57:05.589Z,86.00
2018-09-17T06:59:34.284Z,85.97
2018-09-17T07:02:03.142Z,85.55
2018-09-17T07:04:31.723Z,85.30
2018-09-17T07:07:00.312Z,84.83
2018-09-17T07:09:28.901Z,84.55
2018-09-17T07:11:57.481Z,84.97
2018-09-17T07:14:26.082Z,83.48
2018-09-17T07:16:54.667Z,83.63
2018-09-17T07:19:23.257Z,83.21
2018-09-17T07:21:51.822Z,81.67
2018-09-17T07:24:20.582Z,80.97
2018-09-17T07:26:49.142Z,80.33
2018-09-17T07:29:17.717Z,80.16
2018-09-17T07:31:46.286Z,79.18
2018-09-17T07:34:14.856Z,78.45
2018-09-17T07:36:43.434Z,77.84
2018-09-17T07:39:12.602Z,77.70
2018-09-17T07:41:41.165Z,76.71
2018-09-17T07:44:09.749Z,76.30
2018-09-17T07:46:38.318Z,76.04
2018-09-17T07:49:06.907Z,75.38
2018-09-17T07:51:35.472Z,75.18
2018-09-17T07:54:04.058Z,75.53
2018-09-17T07:56:32.624Z,74.20
2018-09-17T07:59:01.262Z,74.97
2018-09-17T08:01:29.825Z,74.04
2018-09-17T08:03:58.396Z,71.57
2018-09-17T08:06:26.948Z,71.12
2018-09-17T08:08:55.547Z,68.93
2018-09-17T08:11:24.098Z,68.92
2018-09-17T08:13:52.671Z,67.53
2018-09-17T08:16:21.308Z,68.40
2018-09-17T08:18:49.861Z,69.06
2018-09-17T08:21:18.449Z,69.18
2018-09-17T08:23:47.053Z,68.63
2018-09-17T08:26:15.637Z,68.37
2018-09-17T08:28:44.210Z,68.81
2018-09-17T08:31:12.884Z,67.79
2018-09-17T08:33:41.418Z,68.05
2018-09-17T08:36:10.000Z,67.04
2018-09-17T08:38:38.597Z,66.47
2018-09-17T08:41:07.481Z,66.06
2018-09-17T08:43:36.106Z,65.77
2018-09-17T08:46:04.735Z,66.13
2018-09-17T08:48:33.304Z,65.02
2018-09-17T08:51:01.881Z,64.55
2018-09-17T08:53:30.449Z,63.87
2018-09-17T08:57:04.275Z,61.93
2018-09-17T08:59:38.186Z,61.25
2018-09-17T09:02:12.198Z,61.68
2018-09-17T09:04:46.007Z,60.88
2018-09-17T09:07:19.937Z,60.99
2018-09-17T09:09:48.532Z,60.79
2018-09-17T09:12:21.990Z,60.00
2018-09-17T09:14:54.701Z,59.36
2018-09-17T09:17:23.254Z,58.84
2018-09-17T09:19:51.823Z,57.78
2018-09-17T09:22:20.408Z,56.88
2018-09-17T09:24:48.976Z,56.92
2018-09-17T09:27:17.565Z,56.59
2018-09-17T09:29:46.156Z,56.15
2018-09-17T09:32:14.741Z,55.58
2018-09-17T09:34:43.294Z,54.79
2018-09-17T09:37:11.901Z,54.81
2018-09-17T09:39:40.470Z,53.82
2018-09-17T09:42:09.052Z,54.12
2018-09-17T09:44:37.615Z,53.65
2018-09-17T09:47:06.247Z,52.48
2018-09-17T09:49:34.797Z,51.45
2018-09-17T09:52:03.377Z,52.25
2018-09-17T09:54:31.931Z,50.96
2018-09-17T09:57:00.496Z,50.38
2018-09-17T09:59:29.068Z,51.40
2018-09-17T10:02:03.032Z,49.97
2018-09-17T10:04:31.581Z,49.86
2018-09-17T10:07:00.153Z,50.42
2018-09-17T10:09:33.918Z,49.94
2018-09-17T10:12:07.754Z,51.17
2018-09-17T10:14:41.557Z,51.56
2018-09-17T10:17:15.514Z,51.22
2018-09-17T10:19:49.604Z,50.69
2018-09-17T10:22:18.841Z,49.72
2018-09-17T10:24:47.393Z,48.56
2018-09-17T10:27:16.772Z,48.83
2018-09-17T10:29:45.426Z,48.66
2018-09-17T10:32:14.135Z,48.70
2018-09-17T10:34:43.066Z,47.92
2018-09-17T10:37:11.980Z,48.25
2018-09-17T10:39:40.629Z,47.55
2018-09-17T10:42:09.233Z,46.27
2018-09-17T10:44:37.788Z,44.75
2018-09-17T10:47:06.413Z,45.54
2018-09-17T10:49:34.993Z,45.81
2018-09-17T10:52:03.594Z,46.25
2018-09-17T10:54:32.241Z,45.60
2018-09-17T10:57:00.908Z,45.76
2018-09-17T10:59:29.500Z,45.74
2018-09-17T11:01:58.085Z,45.73
2018-09-17T11:04:26.674Z,45.90
2018-09-17T11:06:55.245Z,45.07
2018-09-17T11:09:23.831Z,43.44
2018-09-17T11:11:52.396Z,42.80
2018-09-17T11:14:21.027Z,43.58
2018-09-17T11:16:49.604Z,44.29
2018-09-17T11:19:18.190Z,44.47
2018-09-17T11:21:46.788Z,43.03
2018-09-17T11:24:15.374Z,43.60
2018-09-17T11:26:43.942Z,43.71
2018-09-17T11:29:12.524Z,43.42
2018-09-17T11:31:41.097Z,42.12
2018-09-17T11:34:09.672Z,41.42
2018-09-17T11:36:38.241Z,42.66
2018-09-17T11:39:08.578Z,42.52
2018-09-17T11:41:37.140Z,42.38
2018-09-17T11:44:05.729Z,43.17
2018-09-17T11:46:34.277Z,43.08
2018-09-17T11:49:02.855Z,42.54
2018-09-17T11:51:31.430Z,43.33
2018-09-17T11:54:00.064Z,43.23
2018-09-17T11:56:28.792Z,42.92
2018-09-17T11:58:57.361Z,42.68
2018-09-17T12:01:31.116Z,42.70
2018-09-17T12:04:04.947Z,43.15
2018-09-17T12:06:38.895Z,41.84
2018-09-17T12:09:09.562Z,41.81
2018-09-17T12:11:38.122Z,41.64
2018-09-17T12:14:06.776Z,42.34
2018-09-17T12:16:35.332Z,41.54
2018-09-17T12:19:03.963Z,42.38
2018-09-17T12:21:32.529Z,42.32
2018-09-17T12:24:01.483Z,40.85
2018-09-17T12:26:30.037Z,41.80
2018-09-17T12:28:58.617Z,41.63
2018-09-17T12:31:27.232Z,41.76
2018-09-17T12:33:55.906Z,41.43
2018-09-17T12:36:24.457Z,41.70
2018-09-17T12:38:53.048Z,41.97
2018-09-17T12:41:21.629Z,41.98
2018-09-17T12:43:50.218Z,42.07
2018-09-17T12:46:18.787Z,42.57
2018-09-17T12:48:47.374Z,42.59
2018-09-17T12:51:15.958Z,41.84
2018-09-17T12:53:44.547Z,41.95
2018-09-17T12:56:14.036Z,40.90
2018-09-17T12:58:42.638Z,40.78
2018-09-17T13:01:11.201Z,40.02
2018-09-17T13:03:39.775Z,39.75
2018-09-17T13:06:08.363Z,39.54
2018-09-17T13:08:36.966Z,39.86
2018-09-17T13:11:05.570Z,39.53
2018-09-17T13:13:34.195Z,39.01
2018-09-17T13:16:02.788Z,39.19
2018-09-17T13:18:31.351Z,39.23
2018-09-17T13:20:59.935Z,38.95
2018-09-17T13:23:28.537Z,38.11
2018-09-17T13:25:57.129Z,37.82
2018-09-17T13:28:25.699Z,37.25
2018-09-17T13:30:54.305Z,37.02
2018-09-17T13:33:22.881Z,37.57
2018-09-17T13:35:51.446Z,37.65
2018-09-17T13:38:20.001Z,37.88
2018-09-17T13:40:48.577Z,38.97
2018-09-17T13:43:17.138Z,38.76
2018-09-17T13:45:45.737Z,39.93
2018-09-17T13:48:14.307Z,39.19
2018-09-17T13:50:42.904Z,38.31
2018-09-17T13:53:11.543Z,38.71
2018-09-17T13:55:40.116Z,38.51
2018-09-17T13:58:08.668Z,39.01
2018-09-17T14:00:37.271Z,39.03
2018-09-17T14:03:05.857Z,38.18
2018-09-17T14:05:34.443Z,38.27
2018-09-17T14:08:03.001Z,38.48
2018-09-17T14:10:31.581Z,38.42
2018-09-17T14:13:00.134Z,38.70
2018-09-17T14:15:28.725Z,38.73
2018-09-17T14:17:57.298Z,38.86
2018-09-17T14:20:25.911Z,38.82
2018-09-17T14:22:54.489Z,38.83
2018-09-17T14:25:23.073Z,39.76
2018-09-17T14:27:51.655Z,38.82
2018-09-17T14:30:20.306Z,39.21
2018-09-17T14:32:54.221Z,39.26
2018-09-17T14:35:22.817Z,39.12
2018-09-17T14:37:51.409Z,39.00
2018-09-17T14:40:19.974Z,39.28
2018-09-17T14:42:48.541Z,39.52
2018-09-17T14:45:17.119Z,38.91
2018-09-17T14:47:45.683Z,38.63
2018-09-17T14:50:14.286Z,38.48
2018-09-17T14:52:42.849Z,38.58
2018-09-17T14:55:11.442Z,38.33
2018-09-17T14:57:40.001Z,38.43
2018-09-17T15:00:08.606Z,37.99
2018-09-17T15:02:37.156Z,38.77
2018-09-17T15:05:05.783Z,38.88
2018-09-17T15:07:34.325Z,39.13
2018-09-17T15:10:02.915Z,39.35
2018-09-17T15:12:31.556Z,39.28
2018-09-17T15:15:00.147Z,39.69
2018-09-17T15:17:28.710Z,40.60
2018-09-17T15:19:57.293Z,39.89
2018-09-17T15:22:25.921Z,40.05
2018-09-17T15:24:54.481Z,40.31
2018-09-17T15:27:23.068Z,39.58
2018-09-17T15:29:51.680Z,39.37
2018-09-17T15:32:20.306Z,39.65
2018-09-17T15:34:48.894Z,39.82
2018-09-17T15:37:17.461Z,40.19
2018-09-17T15:39:46.057Z,39.93
2018-09-17T15:42:14.678Z,40.46
2018-09-17T15:44:43.248Z,39.90
2018-09-17T15:47:11.846Z,40.88
2018-09-17T15:49:40.554Z,41.45
2018-09-17T15:52:09.185Z,40.95
2018-09-17T15:54:37.779Z,40.74
2018-09-17T15:57:06.374Z,41.63
2018-09-17T15:59:34.944Z,41.51
2018-09-17T16:02:03.538Z,41.67
2018-09-17T16:04:32.097Z,42.02
2018-09-17T16:07:00.676Z,42.15
2018-09-17T16:09:29.246Z,42.58
2018-09-17T16:11:57.813Z,42.88
2018-09-17T16:14:26.376Z,43.24
2018-09-17T16:16:54.964Z,43.54
2018-09-17T16:19:23.538Z,43.66
2018-09-17T16:21:52.193Z,44.39
2018-09-17T16:24:21.050Z,44.82
2018-09-17T16:26:49.615Z,45.08
2018-09-17T16:29:18.197Z,45.36
2018-09-17T16:31:46.797Z,45.43
2018-09-17T16:34:15.384Z,45.43
2018-09-17T16:36:43.945Z,45.54
2018-09-17T16:39:12.528Z,45.83
2018-09-17T16:41:41.184Z,46.08
2018-09-17T16:44:09.730Z,46.34
2018-09-17T16:46:38.356Z,46.27
2018-09-17T16:49:06.969Z,46.46
2018-09-17T16:51:35.536Z,46.84
2018-09-17T16:54:04.117Z,47.48
2018-09-17T16:56:32.684Z,48.08
2018-09-17T16:59:01.283Z,49.31
2018-09-17T17:01:29.864Z,51.85
2018-09-17T17:03:58.441Z,53.61
2018-09-17T17:06:27.003Z,56.34
2018-09-17T17:08:55.638Z,59.39
2018-09-17T17:11:24.290Z,60.61
2018-09-17T17:13:52.847Z,61.14
2018-09-17T17:16:21.463Z,61.59
2018-09-17T17:18:50.156Z,61.75
2018-09-17T17:21:18.652Z,63.17
2018-09-17T17:23:47.235Z,63.79
2018-09-17T17:26:15.881Z,64.94
2018-09-17T17:28:44.521Z,64.93
2018-09-17T17:31:13.104Z,66.11
2018-09-17T17:33:42.465Z,66.53
2018-09-17T17:36:12.056Z,66.94
2018-09-17T17:38:41.347Z,67.55
2018-09-17T17:41:11.316Z,68.92
2018-09-17T17:43:40.460Z,72.52
2018-09-17T17:46:10.185Z,73.19
2018-09-17T17:48:39.273Z,72.29
2018-09-17T17:51:08.508Z,72.05
